Time;durP1;ratioP1;P1;durP2;ratioP2;P2;SDS_P1;SDS_P2;PMS_P1;PMS_P2;Temp;Humidity;BMP_temperature;BMP_pressure;BME280_temperature;BME280_humidity;BME280_pressure;Samples;Min_cycle;Max_cycle;Signal;HPM_P1;HPM_P2
2022/04/18 00:01:04;;;;;;;13.55;7.82;;;;;;;6.11;57.88;100140.31;5073126;28;20032;-79
2022/04/18 00:03:30;;;;;;;11.20;6.95;;;;;;;6.08;57.71;100145.56;5055136;28;20108;-79
2022/04/18 00:05:55;;;;;;;12.15;7.45;;;;;;;6.05;56.96;100152.53;5073105;28;20029;-79
2022/04/18 00:08:20;;;;;;;10.32;6.93;;;;;;;5.90;56.65;100125.19;5055243;28;20531;-79
2022/04/18 00:10:46;;;;;;;11.30;7.80;;;;;;;5.95;57.21;100134.59;5072957;28;20053;-79
2022/04/18 00:13:11;;;;;;;11.73;7.35;;;;;;;5.97;57.33;100144.91;5054966;28;20077;-79
2022/04/18 00:15:37;;;;;;;12.05;6.80;;;;;;;5.87;57.31;100133.88;5073217;28;20115;-79
2022/04/18 00:18:02;;;;;;;10.05;6.65;;;;;;;5.70;57.45;100123.00;5072966;28;20025;-79
2022/04/18 00:20:27;;;;;;;9.60;7.00;;;;;;;5.64;57.97;100123.13;5073017;28;20035;-79
2022/04/18 00:22:53;;;;;;;9.15;6.78;;;;;;;5.62;59.86;100130.91;5072796;28;20113;-79
2022/04/18 00:25:18;;;;;;;9.90;6.63;;;;;;;5.48;61.81;100118.25;5054635;28;20028;-79
2022/04/18 00:27:43;;;;;;;11.43;7.00;;;;;;;5.41;63.11;100110.63;5072749;28;20090;-79
2022/04/18 00:30:09;;;;;;;13.00;7.82;;;;;;;5.48;64.15;100125.16;5072372;28;20028;-79
2022/04/18 00:32:35;;;;;;;12.20;7.47;;;;;;;5.41;65.51;100119.22;5054475;28;20096;-79
2022/04/18 00:35:02;;;;;;;11.65;7.95;;;;;;;5.43;66.64;100122.63;5054468;28;20115;-79
2022/04/18 00:37:27;;;;;;;17.70;8.30;;;;;;;5.46;67.56;100119.16;5054714;28;20020;-79
2022/04/18 00:39:53;;;;;;;11.52;8.20;;;;;;;5.42;69.05;100110.59;5072493;28;20537;-79
2022/04/18 00:42:19;;;;;;;14.02;8.20;;;;;;;5.37;69.59;100101.22;5072111;28;20032;-79
2022/04/18 00:44:44;;;;;;;14.65;9.43;;;;;;;5.45;68.66;100112.28;5054393;28;20029;-79
2022/04/18 00:47:10;;;;;;;14.60;9.43;;;;;;;5.45;68.69;100102.81;5054069;28;20036;-79
2022/04/18 00:49:35;;;;;;;15.02;9.32;;;;;;;5.40;69.84;100091.72;5072329;28;20036;-79
2022/04/18 00:52:03;;;;;;;14.20;9.90;;;;;;;5.39;69.54;100095.16;5054003;28;20475;-79
2022/04/18 00:54:30;;;;;;;16.27;9.57;;;;;;;5.30;70.31;100077.22;5053952;28;20029;-79
2022/04/18 00:56:56;;;;;;;17.30;9.95;;;;;;;5.27;70.81;100077.31;5054238;28;20029;-79
2022/04/18 00:59:22;;;;;;;18.98;10.88;;;;;;;5.26;70.75;100083.34;5071881;28;20032;-79
2022/04/18 01:01:48;;;;;;;13.32;9.48;;;;;;;5.30;69.33;100089.31;5071916;28;20029;-79
2022/04/18 01:04:13;;;;;;;17.15;9.52;;;;;;;5.28;70.63;100079.00;5054017;28;20082;-79
2022/04/18 01:06:39;;;;;;;14.98;10.23;;;;;;;5.34;71.06;100086.63;5072263;28;20491;-79
2022/04/18 01:09:04;;;;;;;15.13;9.77;;;;;;;5.34;72.67;100081.47;5053631;28;20044;-79
2022/04/18 01:11:32;;;;;;;17.42;10.40;;;;;;;5.38;73.56;100072.78;5053965;28;20437;-79
2022/04/18 01:14:01;;;;;;;19.02;10.90;;;;;;;5.43;73.93;100081.28;5053952;28;20047;-79
2022/04/18 01:16:27;;;;;;;15.32;9.55;;;;;;;5.45;72.93;100082.13;5072062;28;20016;-80
2022/04/18 01:18:52;;;;;;;17.50;10.80;;;;;;;5.45;73.14;100064.03;5072049;28;20028;-79
2022/04/18 01:21:19;;;;;;;17.00;10.02;;;;;;;5.47;73.27;100070.03;5053616;28;20081;-79
2022/04/18 01:23:44;;;;;;;18.60;10.73;;;;;;;5.53;72.69;100078.56;5071893;28;20111;-79
2022/04/18 01:29:01;;;;;;;15.68;10.32;;;;;;;5.47;72.15;100056.25;5072085;28;20102;-79
2022/04/18 01:31:27;;;;;;;18.00;9.63;;;;;;;5.51;73.04;100055.31;5071967;28;20044;-79
2022/04/18 01:33:53;;;;;;;12.30;8.15;;;;;;;5.55;71.39;100062.13;5053948;28;20114;-80
2022/04/18 01:36:18;;;;;;;10.93;7.30;;;;;;;5.53;71.36;100057.88;5053558;28;20111;-79
2022/04/18 01:38:44;;;;;;;9.52;6.65;;;;;;;5.57;70.13;100060.38;5071712;28;20435;-80
2022/04/18 01:41:09;;;;;;;10.13;6.60;;;;;;;5.58;70.07;100061.22;5071254;28;20021;-79
2022/04/18 01:43:35;;;;;;;13.38;8.40;;;;;;;5.48;71.59;100033.00;5071772;28;20158;-79
2022/04/18 01:46:00;;;;;;;10.93;8.18;;;;;;;5.46;71.39;100039.06;5048947;28;20399;-80
2022/04/18 01:48:25;;;;;;;10.50;6.72;;;;;;;5.59;70.18;100055.19;5032138;28;20045;-79
2022/04/18 01:50:51;;;;;;;11.63;6.85;;;;;;;5.56;68.19;100047.47;5049126;28;20037;-80
2022/04/18 01:53:16;;;;;;;9.80;6.35;;;;;;;5.53;66.12;100037.22;5048782;28;20037;-79
2022/04/18 01:55:42;;;;;;;10.07;7.07;;;;;;;5.60;66.85;100052.53;5048993;28;20052;-79
2022/04/18 01:58:08;;;;;;;11.63;6.65;;;;;;;5.57;66.52;100044.88;5048942;28;20108;-79
2022/04/18 02:00:34;;;;;;;8.85;5.80;;;;;;;5.51;66.00;100037.22;5049045;28;20033;-79
2022/04/18 02:02:59;;;;;;;9.50;6.65;;;;;;;5.50;66.91;100038.13;5049073;28;20592;-79
2022/04/18 02:05:25;;;;;;;9.35;6.18;;;;;;;5.44;66.95;100033.94;5050765;28;20044;-80
2022/04/18 02:07:51;;;;;;;7.45;5.57;;;;;;;5.43;66.35;100039.97;5036205;28;20021;-80
2022/04/18 02:10:16;;;;;;;7.65;5.40;;;;;;;5.39;67.63;100033.16;5052402;28;20053;-80
2022/04/18 02:12:41;;;;;;;8.45;5.85;;;;;;;5.29;67.06;100018.72;5052894;28;20480;-80
2022/04/18 02:15:08;;;;;;;9.38;5.50;;;;;;;5.32;67.06;100020.41;5035871;28;20476;-80
2022/04/18 02:17:33;;;;;;;7.85;5.40;;;;;;;5.26;65.94;100021.34;5069069;28;20048;-79
2022/04/18 02:19:58;;;;;;;6.45;4.65;;;;;;;5.23;65.84;100018.84;5075114;28;20468;-79
2022/04/18 02:22:24;;;;;;;6.78;4.45;;;;;;;5.18;66.36;100011.19;5056789;28;20174;-80
2022/04/18 02:24:49;;;;;;;9.30;5.03;;;;;;;5.18;67.92;100015.47;5057039;28;20032;-80
2022/04/18 02:27:16;;;;;;;6.68;4.25;;;;;;;4.97;66.91;99994.38;5074949;28;20024;-80
2022/04/18 02:29:42;;;;;;;8.43;5.47;;;;;;;5.02;60.24;100012.34;5074967;28;20553;-80
2022/04/18 02:34:52;;;;;;;17.20;11.45;;;;;;;4.88;67.19;100010.00;5075149;28;20086;-80
2022/04/18 02:37:17;;;;;;;19.58;11.00;;;;;;;4.74;69.49;100002.50;5074536;28;20021;-80
2022/04/18 02:39:42;;;;;;;19.95;10.75;;;;;;;4.64;70.51;99997.53;5074671;28;20024;-79
2022/04/18 02:42:08;;;;;;;17.30;9.68;;;;;;;4.61;72.27;100008.75;5056606;28;20029;-80
2022/04/18 02:44:34;;;;;;;16.50;10.52;;;;;;;4.48;73.29;100007.25;5074922;28;20503;-80
2022/04/18 02:46:59;;;;;;;20.52;11.48;;;;;;;4.37;74.47;99999.66;5032226;28;20087;-80
2022/04/18 02:49:24;;;;;;;17.90;11.40;;;;;;;4.20;75.85;99984.47;5032139;28;20126;-79
2022/04/18 02:51:50;;;;;;;17.20;11.40;;;;;;;4.22;76.40;99997.34;5032282;28;20037;-79
2022/04/18 02:54:16;;;;;;;17.42;10.55;;;;;;;4.11;76.43;99994.91;5031986;28;20040;-79
2022/04/18 02:56:41;;;;;;;18.85;11.77;;;;;;;4.07;76.25;100000.16;5032166;28;20441;-79
2022/04/18 02:59:06;;;;;;;18.33;11.20;;;;;;;3.92;76.38;99981.47;5031851;28;20070;-79
2022/04/18 03:01:32;;;;;;;18.38;10.85;;;;;;;3.94;76.60;100000.31;5015302;28;20029;-79
2022/04/18 03:03:57;;;;;;;17.00;11.13;;;;;;;3.85;77.57;99992.72;5032211;28;20192;-79
2022/04/18 03:06:23;;;;;;;19.48;11.85;;;;;;;3.76;78.06;99979.97;5015032;28;20026;-79
2022/04/18 03:08:48;;;;;;;19.13;11.40;;;;;;;3.69;78.64;99980.91;5014999;28;20460;-79
2022/04/18 03:11:13;;;;;;;18.77;11.63;;;;;;;3.65;78.71;99989.56;5014861;28;20045;-79
2022/04/18 03:13:44;;;;;;;19.58;11.27;;;;;;;3.49;78.33;99974.28;5031767;28;20033;-79
2022/04/18 03:16:11;;;;;;;17.55;11.25;;;;;;;3.56;78.33;100000.81;5031159;28;20547;-79
2022/04/18 03:18:36;;;;;;;19.13;11.32;;;;;;;3.46;77.87;99994.09;5031706;28;20107;-80
2022/04/18 03:21:03;;;;;;;19.67;11.82;;;;;;;3.38;78.08;99990.75;5015043;28;20524;-79
2022/04/18 03:23:28;;;;;;;20.75;12.10;;;;;;;3.37;78.56;99991.59;5035904;28;20151;-79
2022/04/18 03:25:54;;;;;;;19.42;11.80;;;;;;;3.34;79.03;99991.66;5056102;28;20486;-79
2022/04/18 03:28:19;;;;;;;18.08;11.02;;;;;;;3.27;79.26;99990.03;5074018;28;20062;-79
2022/04/18 03:30:44;;;;;;;21.35;11.98;;;;;;;3.20;79.31;99982.38;5073916;28;20395;-80
2022/04/18 03:33:10;;;;;;;16.70;10.75;;;;;;;3.14;79.84;99976.44;5073652;28;20035;-79
2022/04/18 03:35:35;;;;;;;20.70;12.35;;;;;;;3.09;79.80;99981.63;5074044;28;20078;-80
2022/04/18 03:40:44;;;;;;;20.33;12.23;;;;;;;3.05;79.56;99974.81;5073633;28;20086;-79
2022/04/18 03:43:10;;;;;;;17.75;11.73;;;;;;;2.97;79.59;99968.91;5055575;28;20048;-79
2022/04/18 03:45:35;;;;;;;20.13;11.52;;;;;;;2.98;79.92;99976.59;5055582;28;20594;-79
2022/04/18 03:48:00;;;;;;;20.50;11.27;;;;;;;2.96;79.55;99986.06;5055511;28;20025;-80
2022/04/18 03:50:26;;;;;;;20.42;11.35;;;;;;;2.87;79.42;99969.88;5055149;28;20397;-80
2022/04/18 03:52:51;;;;;;;18.65;11.02;;;;;;;2.88;79.12;99977.56;5073635;28;20115;-80
2022/04/18 03:55:17;;;;;;;20.45;10.43;;;;;;;2.88;79.09;99980.16;5055340;28;20020;-80
2022/04/18 03:57:43;;;;;;;17.92;10.45;;;;;;;2.84;79.49;99983.63;5055473;28;20081;-79
2022/04/18 04:00:09;;;;;;;19.50;10.93;;;;;;;2.74;80.01;99970.00;5055437;28;20024;-80
2022/04/18 04:02:35;;;;;;;18.17;10.90;;;;;;;2.79;81.37;99987.97;5073114;28;20032;-80
2022/04/18 04:05:01;;;;;;;17.13;11.73;;;;;;;2.75;82.68;99984.56;5073159;28;20031;-80
2022/04/18 04:07:26;;;;;;;19.10;11.40;;;;;;;2.61;82.89;99955.56;5073118;28;20036;-80
2022/04/18 04:09:53;;;;;;;19.23;11.02;;;;;;;2.74;83.11;99982.84;5073097;28;20059;-80
2022/04/18 04:12:26;;;;;;;19.30;11.65;;;;;;;2.73;83.63;99990.56;5073096;28;20123;-80
2022/04/18 04:14:54;;;;;;;16.55;11.82;;;;;;;2.68;83.71;99980.31;5073021;28;20048;-80
2022/04/18 04:17:22;;;;;;;20.15;12.30;;;;;;;2.66;84.23;99971.78;5072681;28;20032;-80
2022/04/18 04:19:48;;;;;;;18.23;11.43;;;;;;;2.71;83.90;99984.59;5072780;28;20031;-80
2022/04/18 04:22:13;;;;;;;20.50;11.82;;;;;;;2.64;83.85;99963.22;5054484;28;20028;-80
2022/04/18 04:24:39;;;;;;;17.95;11.00;;;;;;;2.66;83.45;99974.34;5054952;28;20032;-80
2022/04/18 04:27:05;;;;;;;19.00;11.63;;;;;;;2.69;83.29;99958.88;5054251;28;20025;-80
2022/04/18 04:29:31;;;;;;;21.30;11.63;;;;;;;2.84;82.73;99983.63;5054380;28;20031;-80
2022/04/18 04:31:57;;;;;;;25.10;16.20;;;;;;;2.89;82.22;99981.00;5072655;28;20028;-80
2022/04/18 04:34:23;;;;;;;32.78;18.25;;;;;;;2.95;81.42;99978.34;5072287;28;20051;-80
2022/04/18 04:36:48;;;;;;;24.55;13.95;;;;;;;2.96;81.45;99969.78;5072690;28;20029;-80
2022/04/18 04:39:13;;;;;;;18.60;12.82;;;;;;;3.04;81.29;99978.28;5054511;28;20032;-80
2022/04/18 04:41:39;;;;;;;21.17;12.85;;;;;;;3.16;81.42;99987.56;5072546;28;20028;-80
2022/04/18 04:44:06;;;;;;;17.85;12.07;;;;;;;3.27;80.87;99985.72;5054567;28;20024;-80
2022/04/18 04:46:32;;;;;;;25.05;13.35;;;;;;;3.40;80.45;99973.56;5054160;28;20020;-80
2022/04/18 04:48:57;;;;;;;22.52;12.40;;;;;;;3.55;79.49;99967.38;5054937;28;20674;-80
2022/04/18 04:51:23;;;;;;;21.30;12.60;;;;;;;3.70;78.91;99969.72;5054284;28;20024;-80
2022/04/18 04:53:48;;;;;;;20.52;11.65;;;;;;;3.86;78.10;99962.66;5054380;28;20453;-80
2022/04/18 04:56:14;;;;;;;19.83;11.82;;;;;;;4.07;77.09;99966.63;5072037;28;20388;-80
2022/04/18 04:58:39;;;;;;;18.90;11.15;;;;;;;4.70;75.37;99971.63;5072238;28;20032;-79
2022/04/18 05:01:07;;;;;;;17.10;10.40;;;;;;;5.59;69.87;99964.75;5053931;28;20021;-80
2022/04/18 05:03:32;;;;;;;17.73;11.02;;;;;;;5.47;68.23;99971.84;5072023;28;20036;-80
2022/04/18 05:05:57;;;;;;;16.30;10.93;;;;;;;5.51;68.57;99970.91;5054157;28;20409;-80
2022/04/18 05:08:23;;;;;;;16.70;10.70;;;;;;;5.97;66.37;99961.34;5053846;28;20028;-80
2022/04/18 05:10:48;;;;;;;16.90;10.65;;;;;;;6.35;65.38;99967.34;5071937;28;20049;-81
2022/04/18 05:13:14;;;;;;;18.77;10.45;;;;;;;6.61;63.37;99951.16;5054108;28;20549;-80
2022/04/18 05:15:39;;;;;;;17.98;10.80;;;;;;;6.90;61.94;99955.59;5071865;28;20020;-80
2022/04/18 05:18:05;;;;;;;16.10;10.38;;;;;;;7.07;61.44;99965.50;5053916;28;20035;-80
2022/04/18 05:20:31;;;;;;;16.05;10.57;;;;;;;8.00;58.12;99949.81;5071747;28;20029;-80
2022/04/18 05:22:56;;;;;;;17.27;11.43;;;;;;;9.19;54.69;99943.22;5054041;28;20024;-81
2022/04/18 05:25:22;;;;;;;16.70;10.98;;;;;;;10.08;50.78;99960.66;5071952;28;20035;-80
2022/04/18 05:27:48;;;;;;;18.80;10.25;;;;;;;9.17;51.56;99958.00;5071885;28;20025;-80
2022/04/18 05:30:13;;;;;;;16.17;10.23;;;;;;;8.96;53.32;99958.78;5072091;28;20032;-81
2022/04/18 05:32:39;;;;;;;24.98;14.38;;;;;;;9.18;53.34;99979.66;5053482;28;20379;-80
2022/04/18 05:35:06;;;;;;;15.55;10.80;;;;;;;9.46;53.32;99967.34;5053965;28;20063;-81
2022/04/18 05:37:31;;;;;;;15.55;10.40;;;;;;;9.72;52.33;99962.94;5071669;28;20024;-80
2022/04/18 05:39:56;;;;;;;16.90;10.68;;;;;;;10.72;49.38;99967.63;5072020;28;20487;-81
2022/04/18 05:42:23;;;;;;;17.95;10.25;;;;;;;10.60;48.84;99974.19;5071408;28;20051;-80
2022/04/18 05:44:49;;;;;;;17.70;10.48;;;;;;;10.34;49.02;99966.63;5071536;28;20112;-80
2022/04/18 05:47:14;;;;;;;13.40;8.80;;;;;;;10.14;49.39;99942.19;5071839;28;20527;-80
2022/04/18 05:49:39;;;;;;;15.55;9.50;;;;;;;10.05;49.40;99952.97;5071521;28;20025;-81
2022/04/18 05:52:05;;;;;;;13.77;9.07;;;;;;;10.08;49.81;99971.06;5071964;28;20502;-80
2022/04/18 05:54:30;;;;;;;58.05;31.83;;;;;;;10.62;48.95;99961.97;5053374;28;20021;-81
2022/04/18 05:56:56;;;;;;;14.27;9.13;;;;;;;10.84;47.93;99977.53;5071426;28;20100;-81
2022/04/18 05:59:21;;;;;;;14.05;9.65;;;;;;;12.54;45.08;99968.91;5053236;28;20028;-81
2022/04/18 06:01:46;;;;;;;14.05;9.32;;;;;;;12.42;43.50;99968.56;5053226;28;20140;-81
2022/04/18 06:04:12;;;;;;;14.82;9.10;;;;;;;11.75;44.38;99966.53;5071571;28;20392;-81
2022/04/18 06:06:37;;;;;;;14.27;9.25;;;;;;;11.34;45.18;99969.28;5053356;28;20134;-81
2022/04/18 06:09:03;;;;;;;18.92;11.80;;;;;;;11.73;45.95;99964.00;5053386;28;20059;-82
2022/04/18 06:11:28;;;;;;;13.50;9.25;;;;;;;12.98;43.59;99953.59;5053238;28;20120;-81
2022/04/18 06:13:54;;;;;;;17.27;9.00;;;;;;;14.55;39.44;99967.72;5071386;28;20035;-78
2022/04/18 06:16:20;;;;;;;14.50;9.73;;;;;;;13.48;40.28;99964.03;5053027;28;20029;-85
2022/04/18 06:18:45;;;;;;;10.50;8.63;;;;;;;12.03;42.77;99957.44;5053515;28;20039;-83
2022/04/18 06:21:12;;;;;;;14.27;9.52;;;;;;;11.90;44.21;99962.41;5053205;28;20108;-84
2022/04/18 06:23:37;;;;;;;11.95;8.60;;;;;;;11.53;45.16;99977.13;5071086;28;20028;-83
2022/04/18 06:26:02;;;;;;;13.95;9.30;;;;;;;12.69;42.77;99968.13;5053317;28;20060;-83
2022/04/18 06:28:28;;;;;;;12.20;8.77;;;;;;;15.07;39.42;99962.00;5052940;28;20035;-83
2022/04/18 06:30:53;;;;;;;12.57;8.65;;;;;;;15.51;37.10;99963.72;5071092;28;20047;-83
2022/04/18 06:33:19;;;;;;;13.45;9.73;;;;;;;14.79;37.57;99970.69;5071432;28;20456;-83
2022/04/18 06:35:46;;;;;;;18.27;12.60;;;;;;;14.52;38.15;99970.50;5053025;28;20029;-82
2022/04/18 06:38:12;;;;;;;12.45;8.60;;;;;;;14.58;38.45;99961.44;5053155;28;20472;-82
2022/04/18 06:40:37;;;;;;;12.77;8.75;;;;;;;17.00;35.07;99962.81;5070731;28;20032;-83
2022/04/18 06:43:02;;;;;;;11.40;8.68;;;;;;;19.42;30.82;99956.53;5070903;28;20468;-81
2022/04/18 06:45:29;;;;;;;12.80;9.10;;;;;;;19.69;29.27;99950.03;5052636;28;20384;-82
2022/04/18 06:47:54;;;;;;;12.20;9.45;;;;;;;20.51;28.21;99946.91;5053187;28;20032;-83
2022/04/18 06:50:20;;;;;;;12.15;8.45;;;;;;;20.10;27.83;99957.28;5071039;28;20486;-81
2022/04/18 06:52:49;;;;;;;13.07;9.30;;;;;;;18.77;29.76;99967.69;5056220;28;20028;-81
2022/04/18 06:55:15;;;;;;;13.55;9.57;;;;;;;18.19;31.21;99959.66;5074491;28;20379;-82
2022/04/18 06:57:41;;;;;;;13.57;8.30;;;;;;;20.06;28.39;99960.31;5056218;28;20033;-84
2022/04/18 07:00:07;;;;;;;12.98;9.05;;;;;;;21.85;26.53;99953.06;5074234;28;20027;-80
2022/04/18 07:02:33;;;;;;;11.52;8.70;;;;;;;23.30;24.53;99950.34;5056158;28;20063;-81
2022/04/18 07:04:59;;;;;;;14.02;10.23;;;;;;;25.61;22.74;99951.22;5056377;28;20024;-81
2022/04/18 07:07:24;;;;;;;12.32;9.30;;;;;;;25.39;21.74;99946.47;5073992;28;20033;-81
2022/04/18 07:09:49;;;;;;;12.85;8.88;;;;;;;25.76;21.50;99953.31;5056071;28;20401;-81
2022/04/18 07:12:22;;;;;;;12.85;9.60;;;;;;;26.77;20.74;99953.97;5074558;28;20067;-78
2022/04/18 07:14:49;;;;;;;15.07;8.95;;;;;;;27.46;19.54;99943.63;5074539;28;20036;-78
2022/04/18 07:17:14;;;;;;;9.57;8.02;;;;;;;26.44;19.80;99944.28;5074387;28;20028;-78
2022/04/18 07:19:39;;;;;;;10.70;8.30;;;;;;;26.42;20.02;99949.78;5074387;28;20036;-78
2022/04/18 07:22:06;;;;;;;10.43;8.05;;;;;;;26.23;20.12;99945.59;5074159;28;20063;-78
2022/04/18 07:24:32;;;;;;;12.40;8.82;;;;;;;25.74;20.44;99948.09;5073953;28;20111;-78
2022/04/18 07:27:00;;;;;;;12.38;8.32;;;;;;;26.31;19.85;99939.44;5055977;28;20132;-79
2022/04/18 07:29:27;;;;;;;10.40;8.13;;;;;;;25.96;20.24;99940.56;5074194;28;20020;-79
2022/04/18 07:31:52;;;;;;;14.93;9.05;;;;;;;26.85;19.55;99953.97;5056169;28;20025;-79
2022/04/18 07:34:18;;;;;;;11.40;8.75;;;;;;;26.62;19.85;99951.13;5074089;28;20039;-79
2022/04/18 07:36:43;;;;;;;15.43;10.38;;;;;;;27.34;18.91;99953.03;5073738;28;20032;-79
2022/04/18 07:39:08;;;;;;;10.90;8.70;;;;;;;28.50;18.52;99949.59;5073947;28;20036;-80
2022/04/18 07:41:34;;;;;;;16.52;11.38;;;;;;;27.82;18.33;99953.88;5055658;28;20032;-78
2022/04/18 07:44:01;;;;;;;10.85;8.77;;;;;;;28.11;18.20;99958.56;5056144;28;20031;-79
2022/04/18 07:46:27;;;;;;;9.93;7.88;;;;;;;28.22;17.95;99949.28;5055720;28;20020;-78
2022/04/18 07:48:53;;;;;;;10.27;8.15;;;;;;;28.51;17.92;99951.25;5055641;28;20028;-79
2022/04/18 07:51:35;;;;;;;14.95;8.65;;;;;;;28.55;17.92;99961.44;5073683;28;20075;-79
2022/04/18 07:54:03;;;;;;;9.30;7.70;;;;;;;28.91;17.46;99949.22;5073606;28;20032;-79
2022/04/18 07:56:28;;;;;;;12.57;8.98;;;;;;;28.67;17.47;99952.97;5055512;28;20025;-79
2022/04/18 07:58:54;;;;;;;10.55;7.50;;;;;;;28.63;17.58;99949.81;5073925;28;20387;-80
2022/04/18 08:01:21;;;;;;;11.10;7.50;;;;;;;28.84;17.15;99952.63;5073438;28;20024;-79
2022/04/18 08:03:47;;;;;;;10.75;8.10;;;;;;;29.38;16.61;99956.97;5054243;28;20577;-79
2022/04/18 08:06:13;;;;;;;11.07;7.78;;;;;;;28.76;17.20;99951.88;5055406;28;20063;-79
2022/04/18 08:08:39;;;;;;;11.55;7.90;;;;;;;27.15;18.58;99956.94;5055097;28;20060;-79
2022/04/18 08:11:05;;;;;;;13.38;9.88;;;;;;;23.68;21.24;99959.13;5054847;28;20517;-78
2022/04/18 08:13:30;;;;;;;11.70;9.13;;;;;;;19.77;25.59;99954.72;5073068;28;20032;-78
2022/04/18 08:15:56;;;;;;;13.35;9.23;;;;;;;17.07;29.81;99952.72;5073086;28;20028;-78
2022/04/18 08:18:21;;;;;;;11.98;8.88;;;;;;;15.88;32.90;99967.50;5055244;28;20063;-80
2022/04/18 08:20:47;;;;;;;12.43;9.25;;;;;;;14.83;34.63;99963.47;5072776;28;20059;-78
2022/04/18 08:23:13;;;;;;;13.35;8.65;;;;;;;13.77;36.16;99952.91;5054886;28;20475;-82
2022/04/18 08:25:38;;;;;;;11.32;8.68;;;;;;;13.14;37.60;99953.63;5072484;28;20032;-79
2022/04/18 08:28:04;;;;;;;15.40;10.40;;;;;;;12.85;39.13;99961.22;5072736;28;20120;-79
2022/04/18 08:30:29;;;;;;;12.90;9.70;;;;;;;12.70;39.74;99954.16;5072558;28;20384;-78
2022/04/18 08:32:55;;;;;;;13.68;9.90;;;;;;;12.65;40.50;99943.09;5072476;28;20040;-79
2022/04/18 08:35:21;;;;;;;12.95;9.00;;;;;;;12.34;40.34;99941.13;5072540;28;20028;-79
2022/04/18 08:37:46;;;;;;;14.02;9.13;;;;;;;12.23;40.17;99962.56;5072140;28;20035;-79
2022/04/18 08:40:13;;;;;;;12.73;9.68;;;;;;;12.04;40.93;99940.84;5076746;28;20028;-79
2022/04/18 08:42:39;;;;;;;13.65;10.07;;;;;;;12.17;41.62;99937.56;5070184;28;20032;-78
2022/04/18 08:45:08;;;;;;;12.93;9.48;;;;;;;12.19;41.51;99956.66;5073712;28;20064;-78
2022/04/18 08:53:06;;;;;;;12.18;9.45;;;;;;;12.28;41.60;99941.44;5092950;28;20449;-79
2022/04/18 08:55:32;;;;;;;10.88;8.73;;;;;;;12.19;42.25;99934.91;5092509;28;20073;-79
2022/04/18 08:57:58;;;;;;;11.25;9.32;;;;;;;12.21;41.80;99946.13;5072851;28;20032;-79
2022/04/18 09:00:23;;;;;;;10.85;8.93;;;;;;;12.08;42.11;99935.41;5037682;28;20131;-79
2022/04/18 09:02:48;;;;;;;11.73;8.93;;;;;;;11.93;41.37;99941.41;5071725;28;20028;-77
2022/04/18 09:05:15;;;;;;;12.20;8.98;;;;;;;11.79;42.34;99939.38;5071954;28;20050;-78
2022/04/18 09:07:43;;;;;;;13.75;9.02;;;;;;;11.90;42.35;99938.91;5053743;28;20028;-78
2022/04/18 09:10:09;;;;;;;17.13;12.02;;;;;;;12.07;41.69;99928.50;5071531;28;20078;-78
2022/04/18 09:12:42;;;;;;;32.17;18.45;;;;;;;12.26;39.58;99930.22;5071633;28;20490;-79
2022/04/18 09:15:09;;;;;;;11.95;8.15;;;;;;;12.40;39.22;99930.41;5053269;28;20024;-78
2022/04/18 09:17:37;;;;;;;12.02;7.97;;;;;;;12.47;39.73;99934.38;5053394;28;20132;-79
2022/04/18 09:20:11;;;;;;;11.05;7.40;;;;;;;12.45;38.25;99926.63;5071927;28;20077;-76
2022/04/18 09:22:45;;;;;;;23.40;13.55;;;;;;;12.30;37.08;99916.09;5071270;28;20472;-76
2022/04/18 09:25:21;;;;;;;13.60;9.57;;;;;;;12.16;36.69;99907.16;5071799;28;20024;-76
2022/04/18 09:27:52;;;;;;;8.48;5.88;;;;;;;12.28;36.72;99910.94;5071386;28;20036;-77
2022/04/18 09:30:17;;;;;;;8.90;6.93;;;;;;;12.52;35.99;99900.22;5071801;28;20074;-76
2022/04/18 09:32:59;;;;;;;9.05;6.43;;;;;;;12.61;35.59;99915.41;5053531;28;20032;-75
2022/04/18 09:35:26;;;;;;;7.20;6.07;;;;;;;12.83;35.79;99916.00;5071478;28;20542;-75
2022/04/18 09:37:53;;;;;;;9.13;5.90;;;;;;;12.81;34.90;99890.84;5071299;28;20267;-76
2022/04/18 09:40:23;;;;;;;11.65;8.18;;;;;;;13.16;34.72;99902.94;5071480;28;20024;-75
2022/04/18 09:42:52;;;;;;;8.05;5.88;;;;;;;13.43;35.79;99882.31;5071818;28;20118;-75
2022/04/18 09:45:18;;;;;;;8.77;6.07;;;;;;;13.87;35.67;99888.66;5071710;28;20024;-76
2022/04/18 09:47:43;;;;;;;9.38;6.65;;;;;;;14.30;35.73;99884.41;5053492;28;20031;-76
2022/04/18 09:50:58;;;;;;;7.80;5.78;;;;;;;14.20;32.63;99894.59;5071407;28;20109;-79
2022/04/18 09:53:04;;;;;;;10.73;7.35;;;;;;;13.69;32.41;99887.88;5074102;28;20114;-78
2022/04/18 09:55:30;;;;;;;12.77;6.05;;;;;;;13.22;31.79;99886.06;5064744;28;20154;-78
2022/04/18 09:58:01;;;;;;;8.13;5.90;;;;;;;12.95;32.46;99893.59;5078849;28;20464;-78
2022/04/18 10:00:27;;;;;;;6.18;4.13;;;;;;;13.05;32.13;99884.34;5071383;28;20414;-77
2022/04/18 10:02:53;;;;;;;10.45;7.50;;;;;;;13.37;31.39;99879.19;5089496;28;20028;-77
2022/04/18 10:05:19;;;;;;;8.80;4.60;;;;;;;13.57;31.37;99880.72;5091865;28;20070;-78
2022/04/18 10:07:47;;;;;;;5.65;4.32;;;;;;;13.50;31.11;99872.38;5075942;28;20535;-78
2022/04/18 10:10:13;;;;;;;6.97;4.68;;;;;;;13.26;31.13;99878.94;5053400;28;20048;-76
2022/04/18 10:12:38;;;;;;;7.95;6.20;;;;;;;13.03;32.01;99867.91;5071194;28;20124;-75
2022/04/18 10:15:04;;;;;;;7.22;4.65;;;;;;;13.01;31.64;99881.97;5071427;28;20028;-75
2022/04/18 10:17:32;;;;;;;4.10;3.50;;;;;;;12.87;31.51;99867.03;5071270;28;20108;-75
2022/04/18 10:20:19;;;;;;;5.63;3.40;;;;;;;13.03;31.43;99872.28;5070968;28;20029;-76
2022/04/18 10:22:50;;;;;;;3.60;3.22;;;;;;;13.16;30.70;99871.56;5071243;28;20033;-75
2022/04/18 10:25:46;;;;;;;5.95;3.42;;;;;;;12.89;31.00;99857.31;5071306;28;20353;-78
2022/04/18 10:28:17;;;;;;;5.03;3.22;;;;;;;12.76;30.24;99867.56;5074987;28;20028;-76
2022/04/18 10:31:00;;;;;;;5.55;4.25;;;;;;;12.85;30.55;99872.34;5057013;28;20029;-77
2022/04/18 10:33:26;;;;;;;7.07;4.53;;;;;;;12.89;30.28;99865.16;5075354;28;20107;-77
2022/04/18 10:36:01;;;;;;;5.60;3.88;;;;;;;12.70;30.48;99850.44;5074797;28;20092;-77
2022/04/18 10:38:30;;;;;;;4.72;3.80;;;;;;;12.78;30.71;99854.44;5074960;28;20028;-76
2022/04/18 10:41:14;;;;;;;11.10;6.50;;;;;;;13.03;30.77;99867.06;5074503;28;20033;-77
2022/04/18 10:44:08;;;;;;;9.45;5.40;;;;;;;13.04;30.65;99868.75;5056616;28;20080;-78
2022/04/18 10:46:38;;;;;;;10.90;8.23;;;;;;;13.06;31.26;99861.66;5074750;28;20024;-78
2022/04/18 10:49:27;;;;;;;9.53;5.80;;;;;;;13.01;32.56;99859.28;5074577;28;20032;-78
2022/04/18 10:51:54;;;;;;;9.73;6.30;;;;;;;12.70;33.54;99850.44;5074526;28;20279;-78
2022/04/18 10:54:25;;;;;;;7.75;5.22;;;;;;;12.42;33.22;99866.69;5074636;28;20032;-78
2022/04/18 10:57:11;;;;;;;9.18;6.82;;;;;;;12.23;33.98;99839.84;5074383;28;20361;-78
2022/04/18 10:59:38;;;;;;;14.20;9.55;;;;;;;12.29;34.48;99836.91;5074376;28;20100;-77
2022/04/18 11:02:06;;;;;;;8.70;6.28;;;;;;;12.61;34.13;99834.41;5056040;28;20024;-77
2022/04/18 11:04:52;;;;;;;10.00;6.72;;;;;;;12.72;33.39;99832.06;5074582;28;20029;-78
2022/04/18 11:07:18;;;;;;;8.88;5.88;;;;;;;12.65;32.78;99842.00;5073726;28;20484;-78
2022/04/18 11:09:46;;;;;;;6.90;5.50;;;;;;;12.53;32.78;99844.41;5056013;28;20081;-79
2022/04/18 11:12:20;;;;;;;7.95;5.90;;;;;;;12.28;33.12;99842.22;5074076;28;20028;-78
2022/04/18 11:14:51;;;;;;;6.07;5.47;;;;;;;12.22;32.92;99843.38;5074097;28;20021;-79
2022/04/18 11:17:40;;;;;;;7.35;5.38;;;;;;;12.36;32.94;99840.91;5074242;28;20074;-79
2022/04/18 11:20:44;;;;;;;9.02;5.53;;;;;;;12.37;33.32;99842.56;5074258;28;20039;-77
2022/04/18 11:23:18;;;;;;;7.20;5.95;;;;;;;12.33;33.70;99838.44;4992531;28;20030;-77
2022/04/18 11:26:00;;;;;;;9.65;6.05;;;;;;;12.35;33.56;99841.00;4975641;28;20030;-76
2022/04/18 11:28:39;;;;;;;8.07;5.90;;;;;;;12.13;33.90;99836.81;4992095;28;20505;-78
2022/04/18 11:31:10;;;;;;;7.45;5.30;;;;;;;11.81;34.74;99824.50;4992048;28;20034;-78
2022/04/18 11:33:42;;;;;;;8.63;5.82;;;;;;;11.73;34.79;99835.31;4991763;28;20034;-77
2022/04/18 11:36:09;;;;;;;7.05;5.70;;;;;;;11.81;35.40;99830.56;4991924;28;20058;-77
2022/04/18 11:38:35;;;;;;;8.95;6.22;;;;;;;11.96;35.36;99823.75;4992004;28;20367;-78
2022/04/18 11:41:09;;;;;;;7.68;6.00;;;;;;;12.13;34.41;99822.91;4991662;28;20045;-78